createdAt,value
2023-05-23T00:04:58.386Z,100884.63
2023-05-23T00:10:01.361Z,100875.25
2023-05-23T00:15:08.682Z,100871.22
2023-05-23T00:20:12.421Z,100868.25
2023-05-23T00:25:15.216Z,100868.41
2023-05-23T00:30:19.569Z,100853.13
2023-05-23T00:35:23.650Z,100851.53
2023-05-23T00:40:27.377Z,100837.75
2023-05-23T00:45:31.529Z,100838.69
2023-05-23T00:50:36.186Z,100832.34
2023-05-23T00:55:39.804Z,100836.84
2023-05-23T01:00:44.983Z,100833.09
2023-05-23T01:05:47.959Z,100828.69
2023-05-23T01:10:51.305Z,100822.06
2023-05-23T01:16:04.515Z,100821.75
2023-05-23T01:21:11.159Z,100828.03
2023-05-23T01:26:34.994Z,100806.19
2023-05-23T01:31:44.158Z,100813.50
2023-05-23T01:36:50.738Z,100816.06
2023-05-23T01:41:54.709Z,100821.09
2023-05-23T01:46:59.349Z,100815.19
2023-05-23T01:52:03.130Z,100829.28
2023-05-23T01:57:07.238Z,100840.06
2023-05-23T02:02:12.266Z,100825.41
2023-05-23T02:07:15.090Z,100826.66
2023-05-23T02:12:17.892Z,100818.59
2023-05-23T02:17:24.233Z,100831.69
2023-05-23T02:22:27.438Z,100833.56
2023-05-23T02:27:30.243Z,100836.47
2023-05-23T02:32:35.076Z,100839.16
2023-05-23T02:37:38.181Z,100844.16
2023-05-23T02:42:41.017Z,100845.44
2023-05-23T02:47:45.767Z,100840.88
2023-05-23T02:52:49.030Z,100849.66
2023-05-23T02:57:56.857Z,100847.56
2023-05-23T03:03:01.739Z,100846.22
2023-05-23T03:08:05.351Z,100849.28
2023-05-23T03:13:08.340Z,100841.75
2023-05-23T03:18:13.171Z,100843.53
2023-05-23T03:23:15.993Z,100852.94
2023-05-23T03:28:21.009Z,100848.41
2023-05-23T03:33:25.164Z,100847.44
2023-05-23T03:38:29.083Z,100848.31
2023-05-23T03:43:31.851Z,100835.31
2023-05-23T03:48:37.771Z,100838.78
2023-05-23T03:53:40.897Z,100836.72
2023-05-23T03:58:43.677Z,100836.50
2023-05-23T04:03:52.758Z,100829.22
2023-05-23T04:08:56.216Z,100844.69
2023-05-23T04:13:59.206Z,100842.25
2023-05-23T04:19:05.888Z,100843.13
2023-05-23T04:24:09.182Z,100854.25
2023-05-23T04:29:12.631Z,100856.75
2023-05-23T04:34:17.225Z,100858.91
2023-05-23T04:39:20.536Z,100861.53
2023-05-23T04:44:43.304Z,100859.59
2023-05-23T04:49:54.020Z,100861.78
2023-05-23T04:54:57.235Z,100865.25
2023-05-23T05:00:01.117Z,100865.06
2023-05-23T05:05:07.252Z,100873.13
2023-05-23T05:10:16.829Z,100864.13
2023-05-23T05:15:20.592Z,100862.34
2023-05-23T05:20:29.567Z,100868.66
2023-05-23T05:25:35.825Z,100880.53
2023-05-23T05:30:39.282Z,100872.25
2023-05-23T05:35:43.946Z,100871.03
2023-05-23T05:40:47.452Z,100865.00
2023-05-23T05:45:51.022Z,100878.69
2023-05-23T05:50:55.652Z,100882.38
2023-05-23T05:55:58.559Z,100880.06
2023-05-23T06:01:01.525Z,100884.78
2023-05-23T06:06:06.880Z,100878.72
2023-05-23T06:11:09.932Z,100893.06
2023-05-23T06:16:13.036Z,100894.84
2023-05-23T06:21:18.095Z,100901.38
2023-05-23T06:26:24.704Z,100898.13
2023-05-23T06:31:28.571Z,100899.09
2023-05-23T06:36:32.800Z,100910.03
2023-05-23T06:41:35.647Z,100910.63
2023-05-23T06:46:40.357Z,100919.84
2023-05-23T06:51:45.325Z,100923.97
2023-05-23T06:56:48.487Z,100939.00
2023-05-23T07:01:51.894Z,100933.88
2023-05-23T07:06:56.139Z,100941.44
2023-05-23T07:11:59.173Z,100947.41
2023-05-23T07:17:02.557Z,100955.13
2023-05-23T07:22:06.926Z,100968.47
2023-05-23T07:27:12.493Z,100960.06
2023-05-23T07:32:15.662Z,100976.22
2023-05-23T07:37:21.165Z,100976.97
2023-05-23T07:42:24.220Z,100977.97
2023-05-23T07:47:27.694Z,100998.22
2023-05-23T07:52:32.313Z,101006.06
2023-05-23T07:57:35.877Z,101004.94
2023-05-23T08:07:43.221Z,101021.09
2023-05-23T08:12:46.793Z,101021.97
2023-05-23T08:17:56.887Z,101028.63
2023-05-23T08:23:02.634Z,101037.28
2023-05-23T08:28:05.980Z,101047.63
2023-05-23T08:33:24.246Z,101056.59
2023-05-23T08:38:31.932Z,101056.78
2023-05-23T08:43:46.302Z,101052.75
2023-05-23T08:48:56.695Z,101064.31
2023-05-23T08:54:03.880Z,101066.06
2023-05-23T08:59:07.031Z,101077.47
2023-05-23T09:04:12.798Z,101090.84
2023-05-23T09:09:36.487Z,101098.28
2023-05-23T09:14:42.305Z,101113.13
2023-05-23T09:19:46.988Z,101119.75
2023-05-23T09:24:59.932Z,101132.00
2023-05-23T09:30:08.024Z,101143.09
2023-05-23T09:35:12.451Z,101148.97
2023-05-23T09:40:17.789Z,101146.06
2023-05-23T09:45:32.068Z,101149.63
2023-05-23T09:50:36.824Z,101156.44
2023-05-23T09:55:42.270Z,101159.88
2023-05-23T10:00:47.493Z,101171.53
2023-05-23T10:05:52.754Z,101179.31
2023-05-23T10:11:33.991Z,101182.69
2023-05-23T10:16:48.671Z,101191.75
2023-05-23T10:21:56.339Z,101195.84
2023-05-23T10:26:59.524Z,101211.50
2023-05-23T10:32:05.660Z,101223.47
2023-05-23T10:37:11.221Z,101230.38
2023-05-23T10:42:19.242Z,101226.69
2023-05-23T10:47:29.440Z,101234.03
2023-05-23T10:52:40.955Z,101247.59
2023-05-23T10:57:43.932Z,101258.84
2023-05-23T11:03:01.121Z,101252.44
2023-05-23T11:08:13.772Z,101248.44
2023-05-23T11:13:16.676Z,101249.50
2023-05-23T11:18:27.618Z,101255.53
2023-05-23T11:23:41.945Z,101263.13
2023-05-23T11:28:57.215Z,101274.50
2023-05-23T11:34:02.687Z,101275.09
2023-05-23T11:39:05.724Z,101271.50
2023-05-23T11:44:14.695Z,101276.22
2023-05-23T11:49:18.818Z,101288.63
2023-05-23T11:54:24.336Z,101300.50
2023-05-23T11:59:28.361Z,101299.59
2023-05-23T12:04:32.678Z,101290.81
2023-05-23T12:09:43.385Z,101293.81
2023-05-23T12:14:46.523Z,101308.84
2023-05-23T12:19:51.659Z,101292.97
2023-05-23T12:24:55.383Z,101302.81
2023-05-23T12:30:09.518Z,101310.91
2023-05-23T12:35:15.941Z,101323.44
2023-05-23T12:40:20.201Z,101322.19
2023-05-23T12:45:25.185Z,101308.22
2023-05-23T12:50:31.324Z,101326.63
2023-05-23T12:55:34.253Z,101333.94
2023-05-23T13:00:37.783Z,101340.34
2023-05-23T13:05:42.203Z,101341.22
2023-05-23T13:10:45.218Z,101351.34
2023-05-23T13:15:50.529Z,101353.22
2023-05-23T13:20:58.164Z,101350.56
2023-05-23T13:26:00.950Z,101360.41
2023-05-23T13:31:04.941Z,101369.97
2023-05-23T13:36:09.389Z,101368.06
2023-05-23T13:41:12.184Z,101364.63
2023-05-23T13:46:16.221Z,101376.03
2023-05-23T13:51:20.596Z,101371.22
2023-05-23T13:56:24.378Z,101378.28
2023-05-23T14:01:27.344Z,101392.25
2023-05-23T14:06:32.902Z,101374.38
2023-05-23T14:11:36.025Z,101387.81
2023-05-23T14:16:38.921Z,101386.28
2023-05-23T14:21:44.895Z,101396.53
2023-05-23T14:26:47.983Z,101393.66
2023-05-23T14:31:51.102Z,101408.53
2023-05-23T14:36:55.731Z,101402.03
2023-05-23T14:41:58.581Z,101408.28
2023-05-23T14:47:01.630Z,101417.41
2023-05-23T14:52:06.176Z,101416.25
2023-05-23T14:57:09.386Z,101430.78
2023-05-23T15:02:12.434Z,101418.63
2023-05-23T15:07:18.255Z,101430.28
2023-05-23T15:12:21.121Z,101429.41
2023-05-23T15:17:26.569Z,101437.59
2023-05-23T15:22:38.575Z,101439.47
2023-05-23T15:27:45.190Z,101442.75
2023-05-23T15:32:50.611Z,101434.25
2023-05-23T15:37:54.884Z,101438.53
2023-05-23T15:42:57.828Z,101449.97
2023-05-23T15:48:00.768Z,101442.06
2023-05-23T15:53:05.234Z,101448.59
2023-05-23T15:58:09.429Z,101439.47
2023-05-23T16:03:12.725Z,101446.47
2023-05-23T16:08:18.134Z,101462.47
2023-05-23T16:13:20.979Z,101462.47
2023-05-23T16:18:24.197Z,101461.81
2023-05-23T16:23:28.737Z,101458.97
2023-05-23T16:28:31.603Z,101463.88
2023-05-23T16:33:34.489Z,101459.50
2023-05-23T16:38:38.836Z,101455.78
2023-05-23T16:43:42.827Z,101472.16
2023-05-23T16:48:45.982Z,101470.53
2023-05-23T16:53:50.353Z,101482.78
2023-05-23T16:58:53.274Z,101478.72
2023-05-23T17:03:57.033Z,101479.13
2023-05-23T17:09:01.632Z,101479.34
2023-05-23T17:14:04.631Z,101469.81
2023-05-23T17:19:07.856Z,101476.19
2023-05-23T17:24:12.229Z,101491.13
2023-05-23T17:29:17.186Z,101492.56
2023-05-23T17:34:20.258Z,101497.03
2023-05-23T17:39:25.220Z,101502.47
2023-05-23T17:44:28.348Z,101500.91
2023-05-23T17:49:31.321Z,101510.22
2023-05-23T17:55:00.972Z,101513.13
2023-05-23T18:00:04.074Z,101518.25
2023-05-23T18:05:17.817Z,101520.63
2023-05-23T18:10:22.291Z,101531.88
2023-05-23T18:15:25.829Z,101526.56
2023-05-23T18:20:28.816Z,101529.75
2023-05-23T18:25:33.474Z,101544.34
2023-05-23T18:30:36.723Z,101532.63
2023-05-23T18:35:39.759Z,101541.78
2023-05-23T18:40:44.496Z,101539.19
2023-05-23T18:45:47.673Z,101535.16
2023-05-23T18:50:51.281Z,101535.25
2023-05-23T18:55:56.371Z,101540.91
2023-05-23T19:01:03.708Z,101542.13
2023-05-23T19:06:10.751Z,101546.00
2023-05-23T19:12:07.529Z,101536.38
2023-05-23T19:17:14.008Z,101546.59
2023-05-23T19:22:55.022Z,101544.53
2023-05-23T19:34:48.136Z,101557.75
2023-05-23T19:39:52.576Z,101563.41
2023-05-23T19:44:55.416Z,101577.66
2023-05-23T19:49:58.410Z,101581.63
2023-05-23T19:55:03.792Z,101583.91
2023-05-23T20:00:09.789Z,101582.53
2023-05-23T20:05:16.431Z,101584.00
2023-05-23T20:10:21.019Z,101594.25
2023-05-23T20:15:38.060Z,101607.75
2023-05-23T20:20:42.847Z,101607.97
2023-05-23T20:25:47.323Z,101611.22
2023-05-23T20:30:50.333Z,101604.13
2023-05-23T20:35:54.001Z,101598.41
2023-05-23T20:41:01.505Z,101599.09
2023-05-23T20:46:06.319Z,101591.53
2023-05-23T20:51:09.451Z,101603.25
2023-05-23T20:56:14.206Z,101608.44
2023-05-23T21:01:17.186Z,101602.59
2023-05-23T21:06:20.071Z,101600.91
2023-05-23T21:11:24.855Z,101606.88
2023-05-23T21:16:27.715Z,101605.41
2023-05-23T21:21:30.490Z,101605.31
2023-05-23T21:26:34.669Z,101590.72
2023-05-23T21:31:41.951Z,101599.66
2023-05-23T21:36:44.958Z,101603.47
2023-05-23T21:41:49.114Z,101603.50
2023-05-23T21:46:51.943Z,101608.00
2023-05-23T21:51:55.105Z,101607.78
2023-05-23T21:56:59.270Z,101595.72
2023-05-23T22:02:02.145Z,101596.38
2023-05-23T22:07:05.580Z,101591.63
2023-05-23T22:12:10.535Z,101598.16
2023-05-23T22:17:14.223Z,101605.28
2023-05-23T22:22:17.032Z,101609.13
2023-05-23T22:27:21.314Z,101608.13
2023-05-23T22:32:24.611Z,101616.22
2023-05-23T22:37:27.386Z,101609.94
2023-05-23T22:42:31.507Z,101610.13
2023-05-23T22:47:34.491Z,101606.28
2023-05-23T22:52:38.562Z,101613.84
2023-05-23T22:57:42.727Z,101603.66
2023-05-23T23:02:46.646Z,101613.97
2023-05-23T23:07:49.605Z,101611.19
2023-05-23T23:12:54.069Z,101608.69
2023-05-23T23:17:57.272Z,101610.78
2023-05-23T23:23:00.143Z,101605.19
2023-05-23T23:28:04.589Z,101604.03
2023-05-23T23:33:07.370Z,101608.44
2023-05-23T23:38:10.306Z,101601.56
2023-05-23T23:43:14.518Z,101594.78
2023-05-23T23:48:17.263Z,101591.19
2023-05-23T23:53:21.379Z,101587.47
2023-05-23T23:58:25.566Z,101590.59
